Time;durP1;ratioP1;P1;durP2;ratioP2;P2;SDS_P1;SDS_P2;PMS_P1;PMS_P2;Temp;Humidity;BMP_temperature;BMP_pressure;BME280_temperature;BME280_humidity;BME280_pressure;Samples;Min_cycle;Max_cycle;Signal;HPM_P1;HPM_P2
2022/06/07 00:02:26;;;;;;;;;;;15.50;99.90;;;;;;5055785;28;19909;-81
2022/06/07 00:04:55;;;;;;;;;;;15.50;99.90;;;;;;5055705;28;20320;-82
2022/06/07 00:07:21;;;;;;;;;;;15.60;99.90;;;;;;5055628;28;20320;-81
2022/06/07 00:09:47;;;;;;;;;;;15.60;99.90;;;;;;5055934;28;19908;-83
2022/06/07 00:12:12;;;;;;;;;;;15.60;99.90;;;;;;5055471;28;20323;-82
2022/06/07 00:14:38;;;;;;;;;;;15.50;99.90;;;;;;5055774;28;19909;-81
2022/06/07 00:17:05;;;;;;;;;;;15.50;99.90;;;;;;5055380;28;19935;-81
2022/06/07 00:19:31;;;;;;;;;;;15.50;99.90;;;;;;5055514;28;19920;-82
2022/06/07 00:21:57;;;;;;;;;;;15.40;99.90;;;;;;5055613;28;20421;-81
2022/06/07 00:24:23;;;;;;;;;;;15.50;99.90;;;;;;5055234;28;19959;-82
2022/06/07 00:26:48;;;;;;;;;;;15.50;99.90;;;;;;5055259;28;19955;-82
2022/06/07 00:29:14;;;;;;;;;;;15.60;99.90;;;;;;5055151;28;19917;-80
2022/06/07 00:31:41;;;;;;;;;;;15.50;99.90;;;;;;5055137;28;19913;-82
2022/06/07 00:34:06;;;;;;;;;;;15.60;99.90;;;;;;5055081;28;19915;-81
2022/06/07 00:36:33;;;;;;;;;;;15.60;99.90;;;;;;5055046;28;19921;-81
2022/06/07 00:38:58;;;;;;;;;;;15.50;99.90;;;;;;5055138;28;19916;-81
2022/06/07 00:41:24;;;;;;;;;;;15.60;99.90;;;;;;5054956;28;19912;-81
2022/06/07 00:44:08;;;;;;;;;;;15.60;99.90;;;;;;5055039;28;19915;-82
2022/06/07 00:46:34;;;;;;;;;;;15.60;99.90;;;;;;5055084;28;19917;-81
2022/06/07 00:49:00;;;;;;;;;;;15.70;99.90;;;;;;5055139;28;19963;-81
2022/06/07 00:51:25;;;;;;;;;;;15.70;99.90;;;;;;5054369;28;19909;-81
2022/06/07 00:53:51;;;;;;;;;;;15.80;99.90;;;;;;5054756;28;20324;-81
2022/06/07 00:56:16;;;;;;;;;;;15.90;99.90;;;;;;5054659;28;19996;-81
2022/06/07 00:58:42;;;;;;;;;;;15.80;99.90;;;;;;5055007;28;19909;-81
2022/06/07 01:01:07;;;;;;;;;;;15.70;99.90;;;;;;5036155;28;19913;-81
2022/06/07 01:03:33;;;;;;;;;;;15.60;99.90;;;;;;5054762;28;19908;-80
2022/06/07 01:10:43;;;;;;;;;;;15.70;99.90;;;;;;5054421;28;19909;-81
2022/06/07 01:11:28;;;;;;;;;;;15.70;99.90;;;;;;5054135;28;19973;-82
2022/06/07 01:13:54;;;;;;;;;;;15.70;99.90;;;;;;5054356;28;20373;-81
2022/06/07 01:16:20;;;;;;;;;;;15.60;99.90;;;;;;5054653;28;19916;-81
2022/06/07 01:18:46;;;;;;;;;;;15.70;99.90;;;;;;5054539;28;19909;-80
2022/06/07 01:21:14;;;;;;;;;;;15.70;99.90;;;;;;5054106;28;19912;-80
2022/06/07 01:23:42;;;;;;;;;;;15.80;99.90;;;;;;5054093;28;20000;-81
2022/06/07 01:26:08;;;;;;;;;;;15.80;99.90;;;;;;5052784;28;20418;-81
2022/06/07 01:28:34;;;;;;;;;;;15.90;99.90;;;;;;5054178;28;19948;-82
2022/06/07 01:30:59;;;;;;;;;;;15.80;99.90;;;;;;5054551;28;19959;-80
2022/06/07 01:33:25;;;;;;;;;;;15.90;99.90;;;;;;5053982;28;19916;-81
2022/06/07 01:36:07;;;;;;;;;;;15.70;99.90;;;;;;5053986;28;19915;-82
2022/06/07 01:38:33;;;;;;;;;;;15.70;99.90;;;;;;5054129;28;20397;-82
2022/06/07 01:43:45;;;;;;;;;;;15.70;99.90;;;;;;5052781;28;20326;-81
2022/06/07 01:46:10;;;;;;;;;;;15.60;99.90;;;;;;5053872;28;19909;-81
2022/06/07 01:48:36;;;;;;;;;;;15.50;99.90;;;;;;5035856;28;19930;-81
2022/06/07 01:51:04;;;;;;;;;;;15.60;99.90;;;;;;5053760;28;19956;-82
2022/06/07 01:53:29;;;;;;;;;;;15.70;99.90;;;;;;5053691;28;19951;-81
2022/06/07 01:56:21;;;;;;;;;;;15.70;99.90;;;;;;5053667;28;19932;-82
2022/06/07 01:58:47;;;;;;;;;;;15.70;99.90;;;;;;5049796;28;19909;-80
2022/06/07 02:01:12;;;;;;;;;;;15.70;99.90;;;;;;5053494;28;19924;-81
2022/06/07 02:03:39;;;;;;;;;;;15.50;99.90;;;;;;5053027;28;19909;-80
2022/06/07 02:06:06;;;;;;;;;;;15.40;99.90;;;;;;5053541;28;20003;-80
2022/06/07 02:08:31;;;;;;;;;;;15.20;99.90;;;;;;5053674;28;19915;-81
2022/06/07 02:11:03;;;;;;;;;;;15.20;99.90;;;;;;5053436;28;19908;-80
2022/06/07 02:13:29;;;;;;;;;;;15.20;99.90;;;;;;5053586;28;19916;-80
2022/06/07 02:15:55;;;;;;;;;;;15.30;99.90;;;;;;5053493;28;19913;-81
2022/06/07 02:18:20;;;;;;;;;;;15.40;99.90;;;;;;5053842;28;19918;-80
2022/06/07 02:20:46;;;;;;;;;;;15.20;99.90;;;;;;5053710;28;19928;-80
2022/06/07 02:23:12;;;;;;;;;;;15.20;99.90;;;;;;5053545;28;19999;-79
2022/06/07 02:25:41;;;;;;;;;;;15.20;99.90;;;;;;5053420;28;19909;-80
2022/06/07 02:28:07;;;;;;;;;;;15.10;99.90;;;;;;5035442;28;20383;-81
2022/06/07 02:30:33;;;;;;;;;;;15.10;99.90;;;;;;5053346;28;19916;-80
2022/06/07 02:32:59;;;;;;;;;;;15.20;99.90;;;;;;5053292;28;19908;-80
2022/06/07 02:35:24;;;;;;;;;;;15.20;99.90;;;;;;5053272;28;20280;-80
2022/06/07 02:37:50;;;;;;;;;;;15.30;99.90;;;;;;5053133;28;19921;-80
2022/06/07 02:40:16;;;;;;;;;;;15.40;99.90;;;;;;5053425;28;19978;-81
2022/06/07 02:42:41;;;;;;;;;;;15.50;99.90;;;;;;5035371;28;19909;-81
2022/06/07 02:45:07;;;;;;;;;;;15.30;99.90;;;;;;5035320;28;20007;-81
2022/06/07 02:47:33;;;;;;;;;;;15.40;99.90;;;;;;5053350;28;20331;-81
2022/06/07 02:49:58;;;;;;;;;;;15.30;99.90;;;;;;5053105;28;19916;-80
2022/06/07 02:52:24;;;;;;;;;;;15.50;99.90;;;;;;5053140;28;19917;-80
2022/06/07 02:54:49;;;;;;;;;;;15.60;99.90;;;;;;5053218;28;19915;-80
2022/06/07 02:57:15;;;;;;;;;;;15.70;99.90;;;;;;5035141;28;19916;-80
2022/06/07 02:59:41;;;;;;;;;;;15.70;99.90;;;;;;5053097;28;19913;-81
2022/06/07 03:02:06;;;;;;;;;;;15.90;99.90;;;;;;5051733;28;19909;-80
2022/06/07 03:04:33;;;;;;;;;;;15.80;99.90;;;;;;5053011;28;19909;-82
2022/06/07 03:07:00;;;;;;;;;;;15.60;99.90;;;;;;5051675;28;20418;-81
2022/06/07 03:09:26;;;;;;;;;;;15.60;99.90;;;;;;5053096;28;20391;-81
2022/06/07 03:11:52;;;;;;;;;;;15.60;99.90;;;;;;5052891;28;19909;-81
2022/06/07 03:14:17;;;;;;;;;;;15.60;99.90;;;;;;5053283;28;19947;-80
2022/06/07 03:16:43;;;;;;;;;;;15.60;99.90;;;;;;5056576;28;20011;-80
2022/06/07 03:19:09;;;;;;;;;;;15.60;99.90;;;;;;5038541;28;19909;-80
2022/06/07 03:21:35;;;;;;;;;;;15.70;99.90;;;;;;5038595;28;19935;-80
2022/06/07 03:24:00;;;;;;;;;;;15.80;99.90;;;;;;5038551;28;20384;-80
2022/06/07 03:26:26;;;;;;;;;;;15.70;99.90;;;;;;5055110;28;19909;-82
2022/06/07 03:28:52;;;;;;;;;;;15.70;99.90;;;;;;5038412;28;19915;-80
2022/06/07 03:31:17;;;;;;;;;;;15.60;99.90;;;;;;5056284;28;19913;-80
2022/06/07 03:33:44;;;;;;;;;;;15.60;99.90;;;;;;5056335;28;20004;-81
2022/06/07 03:36:12;;;;;;;;;;;15.70;99.90;;;;;;5056530;28;20373;-80
2022/06/07 03:38:39;;;;;;;;;;;15.70;99.90;;;;;;5056636;28;19959;-80
2022/06/07 03:41:04;;;;;;;;;;;15.70;99.90;;;;;;5056253;28;19917;-81
2022/06/07 03:43:30;;;;;;;;;;;15.60;99.90;;;;;;5056298;28;20011;-81
2022/06/07 03:45:56;;;;;;;;;;;15.60;99.90;;;;;;5038104;28;19955;-81
2022/06/07 03:48:22;;;;;;;;;;;15.60;99.90;;;;;;5055961;28;20351;-80
2022/06/07 03:50:47;;;;;;;;;;;15.80;99.90;;;;;;5055904;28;19932;-81
2022/06/07 03:53:13;;;;;;;;;;;15.70;99.90;;;;;;5055885;28;19992;-80
2022/06/07 03:55:42;;;;;;;;;;;15.70;99.90;;;;;;5055951;28;19973;-81
2022/06/07 03:58:10;;;;;;;;;;;15.80;99.90;;;;;;5055850;28;19916;-80
2022/06/07 04:00:36;;;;;;;;;;;15.60;99.90;;;;;;5055702;28;19935;-80
2022/06/07 04:03:01;;;;;;;;;;;15.60;99.90;;;;;;5037840;28;20369;-82
2022/06/07 04:05:27;;;;;;;;;;;15.70;99.90;;;;;;5055804;28;19924;-80
2022/06/07 04:08:11;;;;;;;;;;;15.80;99.90;;;;;;5055646;28;19916;-82
2022/06/07 04:10:43;;;;;;;;;;;15.70;99.90;;;;;;5055593;28;19909;-81
2022/06/07 04:13:09;;;;;;;;;;;15.60;99.90;;;;;;5055545;28;19916;-81
2022/06/07 04:15:34;;;;;;;;;;;15.70;99.90;;;;;;5055494;28;19912;-79
2022/06/07 04:18:00;;;;;;;;;;;15.80;99.90;;;;;;5055507;28;19915;-82
2022/06/07 04:20:26;;;;;;;;;;;15.70;99.90;;;;;;5055291;28;19935;-80
2022/06/07 04:22:52;;;;;;;;;;;15.60;99.90;;;;;;5055334;28;20015;-80
2022/06/07 04:25:17;;;;;;;;;;;15.70;99.90;;;;;;5037417;28;19911;-80
2022/06/07 04:27:43;;;;;;;;;;;15.80;99.90;;;;;;5054460;28;20324;-81
2022/06/07 04:30:09;;;;;;;;;;;15.90;99.90;;;;;;5055233;28;19909;-80
2022/06/07 04:32:34;;;;;;;;;;;16.00;99.90;;;;;;5055191;28;19919;-80
2022/06/07 04:35:00;;;;;;;;;;;15.90;99.90;;;;;;5055143;28;19909;-80
2022/06/07 04:37:26;;;;;;;;;;;15.90;99.90;;;;;;5054882;28;20003;-81
2022/06/07 04:39:51;;;;;;;;;;;16.00;99.90;;;;;;5037051;28;20285;-80
2022/06/07 04:42:17;;;;;;;;;;;15.90;99.90;;;;;;5055141;28;19908;-82
2022/06/07 04:44:42;;;;;;;;;;;15.90;99.90;;;;;;5054987;28;19909;-80
2022/06/07 04:47:08;;;;;;;;;;;16.10;99.90;;;;;;5055023;28;19908;-80
2022/06/07 04:49:33;;;;;;;;;;;16.00;99.90;;;;;;5054819;28;19909;-81
2022/06/07 04:51:59;;;;;;;;;;;16.00;99.90;;;;;;5054776;28;19908;-81
2022/06/07 04:54:25;;;;;;;;;;;16.10;99.90;;;;;;5054802;28;19909;-81
2022/06/07 04:56:53;;;;;;;;;;;16.20;99.90;;;;;;5036759;28;19948;-80
2022/06/07 04:59:18;;;;;;;;;;;16.10;99.90;;;;;;5054562;28;19912;-80
2022/06/07 05:01:44;;;;;;;;;;;16.20;99.90;;;;;;5054604;28;19959;-82
2022/06/07 05:04:10;;;;;;;;;;;16.10;99.90;;;;;;5054475;28;19915;-81
2022/06/07 05:06:37;;;;;;;;;;;16.20;99.90;;;;;;5054518;28;20018;-80
2022/06/07 05:09:05;;;;;;;;;;;16.40;99.90;;;;;;5054477;28;19916;-81
2022/06/07 05:11:31;;;;;;;;;;;16.30;99.90;;;;;;5036463;28;20001;-81
2022/06/07 05:13:59;;;;;;;;;;;16.50;99.90;;;;;;5054421;28;19984;-81
2022/06/07 05:16:25;;;;;;;;;;;16.40;99.90;;;;;;5054304;28;19912;-81
2022/06/07 05:18:51;;;;;;;;;;;16.60;99.90;;;;;;5054461;28;19916;-80
2022/06/07 05:21:17;;;;;;;;;;;16.40;99.90;;;;;;5054258;28;20026;-80
2022/06/07 05:23:43;;;;;;;;;;;16.50;99.90;;;;;;5054278;28;19913;-81
2022/06/07 05:26:24;;;;;;;;;;;16.60;99.90;;;;;;5036242;28;19908;-80
2022/06/07 05:28:49;;;;;;;;;;;16.70;99.90;;;;;;5054335;28;19932;-81
2022/06/07 05:31:15;;;;;;;;;;;16.70;99.90;;;;;;5054038;28;20289;-81
2022/06/07 05:33:40;;;;;;;;;;;16.60;99.90;;;;;;5054052;28;19909;-81
2022/06/07 05:36:06;;;;;;;;;;;16.80;99.90;;;;;;5053823;28;19913;-80
2022/06/07 05:38:32;;;;;;;;;;;16.80;99.90;;;;;;5035827;28;19924;-81
2022/06/07 05:40:57;;;;;;;;;;;16.70;99.90;;;;;;5053819;28;19913;-80
2022/06/07 05:43:23;;;;;;;;;;;16.80;99.90;;;;;;5054019;28;20000;-81
2022/06/07 05:45:50;;;;;;;;;;;16.80;99.90;;;;;;5053826;28;20292;-81
2022/06/07 05:48:16;;;;;;;;;;;17.00;99.90;;;;;;5053692;28;19952;-80
2022/06/07 05:50:43;;;;;;;;;;;17.20;99.90;;;;;;5053775;28;19942;-82
2022/06/07 05:53:09;;;;;;;;;;;17.00;99.90;;;;;;5053670;28;19908;-80
2022/06/07 05:55:34;;;;;;;;;;;17.10;99.90;;;;;;5053806;28;20312;-81
2022/06/07 05:58:00;;;;;;;;;;;17.20;99.90;;;;;;5053785;28;19909;-81
2022/06/07 06:00:26;;;;;;;;;;;17.20;99.90;;;;;;5035628;28;19913;-80
2022/06/07 06:02:51;;;;;;;;;;;17.20;99.90;;;;;;5053674;28;19908;-79
2022/06/07 06:05:18;;;;;;;;;;;17.30;99.90;;;;;;5053440;28;19909;-80
2022/06/07 06:10:28;;;;;;;;;;;17.50;99.90;;;;;;5052179;28;20387;-79
2022/06/07 06:12:53;;;;;;;;;;;17.70;99.90;;;;;;5052292;28;19909;-81
2022/06/07 06:15:19;;;;;;;;;;;17.50;99.90;;;;;;5053380;28;19909;-79
2022/06/07 06:17:45;;;;;;;;;;;17.40;99.90;;;;;;5035700;28;19912;-80
2022/06/07 06:20:11;;;;;;;;;;;17.60;99.90;;;;;;5053451;28;19913;-80
2022/06/07 06:22:37;;;;;;;;;;;17.60;99.90;;;;;;5053454;28;19909;-78
2022/06/07 06:25:03;;;;;;;;;;;17.80;99.90;;;;;;5052526;28;20369;-80
2022/06/07 06:27:32;;;;;;;;;;;18.00;99.90;;;;;;5051649;28;19971;-80
2022/06/07 06:29:57;;;;;;;;;;;18.00;99.90;;;;;;5051935;28;19913;-80
2022/06/07 06:32:23;;;;;;;;;;;18.30;99.90;;;;;;5052026;28;20388;-79
2022/06/07 06:34:48;;;;;;;;;;;18.60;99.90;;;;;;5051833;28;19909;-79
2022/06/07 06:37:14;;;;;;;;;;;18.50;99.90;;;;;;5033841;28;20282;-80
2022/06/07 06:39:40;;;;;;;;;;;18.50;99.90;;;;;;5052287;28;20012;-79
2022/06/07 06:42:05;;;;;;;;;;;18.50;99.90;;;;;;5053445;28;20006;-79
2022/06/07 06:44:31;;;;;;;;;;;18.60;99.90;;;;;;5035424;28;19909;-78
2022/06/07 06:46:57;;;;;;;;;;;18.70;99.90;;;;;;5053842;28;19909;-79
2022/06/07 06:49:24;;;;;;;;;;;18.90;99.90;;;;;;5035957;28;20002;-78
2022/06/07 06:51:50;;;;;;;;;;;18.90;99.90;;;;;;5056393;28;19944;-79
2022/06/07 06:54:16;;;;;;;;;;;18.80;99.90;;;;;;5056958;28;19909;-79
2022/06/07 06:56:42;;;;;;;;;;;18.70;99.90;;;;;;5057323;28;19931;-80
2022/06/07 06:59:08;;;;;;;;;;;18.70;99.90;;;;;;5056848;28;19909;-79
2022/06/07 07:01:35;;;;;;;;;;;18.70;99.90;;;;;;5056965;28;19909;-79
2022/06/07 07:04:03;;;;;;;;;;;18.70;99.90;;;;;;5057054;28;19916;-81
2022/06/07 07:06:29;;;;;;;;;;;18.90;99.90;;;;;;5057134;28;19913;-78
2022/06/07 07:08:55;;;;;;;;;;;19.20;99.90;;;;;;5057155;28;19952;-78
2022/06/07 07:11:23;;;;;;;;;;;19.20;99.90;;;;;;5056795;28;19909;-78
2022/06/07 07:13:49;;;;;;;;;;;19.60;99.90;;;;;;5056934;28;19924;-81
2022/06/07 07:16:18;;;;;;;;;;;19.80;99.90;;;;;;5057236;28;20489;-82
2022/06/07 07:18:44;;;;;;;;;;;19.80;99.90;;;;;;5056732;28;19916;-78
2022/06/07 07:21:17;;;;;;;;;;;20.00;99.90;;;;;;5056689;28;20331;-79
2022/06/07 07:23:44;;;;;;;;;;;20.20;99.90;;;;;;5056610;28;19913;-78
2022/06/07 07:26:16;;;;;;;;;;;20.20;99.90;;;;;;5056592;28;19909;-79
2022/06/07 07:28:41;;;;;;;;;;;20.30;99.90;;;;;;5057082;28;20319;-79
2022/06/07 07:31:10;;;;;;;;;;;20.10;99.90;;;;;;5056358;28;19912;-81
2022/06/07 07:33:36;;;;;;;;;;;20.30;99.90;;;;;;5056729;28;19976;-80
2022/06/07 07:36:03;;;;;;;;;;;20.30;99.90;;;;;;5056099;28;19944;-80
2022/06/07 07:38:28;;;;;;;;;;;20.20;99.90;;;;;;5056527;28;19919;-80
2022/06/07 07:40:54;;;;;;;;;;;20.30;99.90;;;;;;5056087;28;19917;-80
2022/06/07 07:43:20;;;;;;;;;;;20.20;99.90;;;;;;5038264;28;19908;-79
2022/06/07 07:45:45;;;;;;;;;;;20.30;99.90;;;;;;5056053;28;20319;-80
2022/06/07 07:48:12;;;;;;;;;;;21.90;99.90;;;;;;5038170;28;19909;-79
2022/06/07 07:50:38;;;;;;;;;;;24.30;99.90;;;;;;5056272;28;19916;-78
2022/06/07 07:53:05;;;;;;;;;;;23.90;99.50;;;;;;5055963;28;19916;-80
2022/06/07 07:55:30;;;;;;;;;;;23.00;99.90;;;;;;5054628;28;19908;-79
2022/06/07 07:57:57;;;;;;;;;;;22.20;99.90;;;;;;5055879;28;19916;-81
2022/06/07 08:00:23;;;;;;;;;;;21.70;99.90;;;;;;5056080;28;19990;-80
2022/06/07 08:02:48;;;;;;;;;;;21.30;99.90;;;;;;5054860;28;19909;-79
2022/06/07 08:05:14;;;;;;;;;;;20.80;99.90;;;;;;5055690;28;19978;-80
2022/06/07 08:07:39;;;;;;;;;;;20.90;99.90;;;;;;5055662;28;19909;-79
2022/06/07 08:10:05;;;;;;;;;;;21.30;99.90;;;;;;5055945;28;19948;-80
2022/06/07 08:12:31;;;;;;;;;;;21.20;99.90;;;;;;5055759;28;20388;-79
2022/06/07 08:15:00;;;;;;;;;;;21.00;99.90;;;;;;5055593;28;19916;-79
2022/06/07 08:17:26;;;;;;;;;;;20.80;99.90;;;;;;5055509;28;19913;-78
2022/06/07 08:19:52;;;;;;;;;;;20.60;99.90;;;;;;5055378;28;19912;-80
2022/06/07 08:22:19;;;;;;;;;;;20.20;99.90;;;;;;5055400;28;19909;-80
2022/06/07 08:24:45;;;;;;;;;;;20.30;99.90;;;;;;5055362;28;19912;-78
2022/06/07 08:27:11;;;;;;;;;;;21.20;99.90;;;;;;5055852;28;19924;-78
2022/06/07 08:29:37;;;;;;;;;;;22.20;99.90;;;;;;5055279;28;19927;-80
2022/06/07 08:32:02;;;;;;;;;;;22.60;99.90;;;;;;5037321;28;19916;-79
2022/06/07 08:39:56;;;;;;;;;;;22.80;97.80;;;;;;5054805;28;19920;-78
2022/06/07 08:42:26;;;;;;;;;;;22.10;99.80;;;;;;5055134;28;19908;-78
2022/06/07 08:44:51;;;;;;;;;;;21.60;99.90;;;;;;5054952;28;19909;-79
2022/06/07 08:47:23;;;;;;;;;;;20.80;99.90;;;;;;5036993;28;19954;-80
2022/06/07 08:49:49;;;;;;;;;;;20.30;99.90;;;;;;5054959;28;20406;-79
2022/06/07 08:52:16;;;;;;;;;;;20.30;99.90;;;;;;5054795;28;20363;-80
2022/06/07 08:54:42;;;;;;;;;;;20.30;99.90;;;;;;5054732;28;19916;-81
2022/06/07 08:57:11;;;;;;;;;;;20.80;99.90;;;;;;5053427;28;19916;-80
2022/06/07 08:59:36;;;;;;;;;;;21.40;99.90;;;;;;5054610;28;19927;-78
2022/06/07 09:02:27;;;;;;;;;;;21.70;99.90;;;;;;5037201;28;19909;-80
2022/06/07 09:04:53;;;;;;;;;;;21.70;99.90;;;;;;5044066;28;19909;-81
2022/06/07 09:07:19;;;;;;;;;;;21.70;99.90;;;;;;5053997;28;20007;-79
2022/06/07 09:12:32;;;;;;;;;;;20.50;99.90;;;;;;5054370;28;20320;-81
2022/06/07 09:15:18;;;;;;;;;;;19.60;99.90;;;;;;5054654;28;19963;-79
2022/06/07 09:17:52;;;;;;;;;;;19.10;99.90;;;;;;5054559;28;19909;-79
2022/06/07 09:20:23;;;;;;;;;;;19.20;99.90;;;;;;5053110;28;19963;-79
2022/06/07 09:22:56;;;;;;;;;;;19.50;99.90;;;;;;5054393;28;19992;-79
2022/06/07 09:25:21;;;;;;;;;;;19.90;99.90;;;;;;5054242;28;19915;-80
2022/06/07 09:27:47;;;;;;;;;;;20.50;99.90;;;;;;5054152;28;19909;-80
2022/06/07 09:30:16;;;;;;;;;;;21.10;99.90;;;;;;5054134;28;20372;-78
2022/06/07 09:32:42;;;;;;;;;;;21.20;99.90;;;;;;5054082;28;19909;-79
2022/06/07 09:35:14;;;;;;;;;;;20.40;99.90;;;;;;5054187;28;19909;-79
2022/06/07 09:37:52;;;;;;;;;;;19.00;99.90;;;;;;5054057;28;19920;-79
2022/06/07 09:40:24;;;;;;;;;;;18.30;99.90;;;;;;5053938;28;20357;-81
2022/06/07 09:42:51;;;;;;;;;;;18.00;99.90;;;;;;5054046;28;19913;-79
2022/06/07 09:45:17;;;;;;;;;;;18.20;99.90;;;;;;5036131;28;20286;-79
2022/06/07 09:47:42;;;;;;;;;;;18.50;99.90;;;;;;5054216;28;19995;-80
2022/06/07 09:50:11;;;;;;;;;;;18.80;99.90;;;;;;5053735;28;20368;-79
2022/06/07 09:52:41;;;;;;;;;;;19.00;99.90;;;;;;5053652;28;19908;-79
2022/06/07 09:55:21;;;;;;;;;;;19.30;99.90;;;;;;5053779;28;20281;-79
2022/06/07 09:58:01;;;;;;;;;;;19.90;99.90;;;;;;5053716;28;19940;-79
2022/06/07 10:00:39;;;;;;;;;;;21.60;99.90;;;;;;5053902;28;20377;-78
2022/06/07 10:03:13;;;;;;;;;;;23.10;99.90;;;;;;5053939;28;19915;-78
2022/06/07 10:05:42;;;;;;;;;;;25.00;99.90;;;;;;5053812;28;19944;-80
2022/06/07 10:08:16;;;;;;;;;;;25.00;99.90;;;;;;5053875;28;20281;-79
2022/06/07 10:11:00;;;;;;;;;;;25.40;97.00;;;;;;5035696;28;19908;-80
2022/06/07 10:13:45;;;;;;;;;;;26.20;96.30;;;;;;5053913;28;19973;-78
2022/06/07 10:16:13;;;;;;;;;;;26.20;93.80;;;;;;5053661;28;20285;-81
2022/06/07 10:19:02;;;;;;;;;;;25.80;93.20;;;;;;5053500;28;19908;-79
2022/06/07 10:21:46;;;;;;;;;;;24.70;93.00;;;;;;5053740;28;19917;-79
2022/06/07 10:24:31;;;;;;;;;;;23.90;95.60;;;;;;5053639;28;19959;-79
2022/06/07 10:27:18;;;;;;;;;;;22.90;98.60;;;;;;5057585;28;20334;-80
2022/06/07 10:29:56;;;;;;;;;;;22.20;99.90;;;;;;5058087;28;19909;-80
2022/06/07 10:32:24;;;;;;;;;;;21.40;99.90;;;;;;5057739;28;19908;-78
2022/06/07 10:35:05;;;;;;;;;;;21.00;99.90;;;;;;5057562;28;19909;-80
2022/06/07 10:37:30;;;;;;;;;;;20.40;99.90;;;;;;5057411;28;19920;-81
2022/06/07 10:39:56;;;;;;;;;;;20.10;99.90;;;;;;5057208;28;19920;-80
2022/06/07 10:42:37;;;;;;;;;;;20.40;99.90;;;;;;5039367;28;19996;-79
2022/06/07 10:45:23;;;;;;;;;;;20.40;99.90;;;;;;5057469;28;19909;-81
2022/06/07 10:47:56;;;;;;;;;;;20.60;99.90;;;;;;5062526;28;19939;-79
2022/06/07 10:50:26;;;;;;;;;;;20.90;99.90;;;;;;5072360;28;19909;-81
2022/06/07 10:52:59;;;;;;;;;;;21.20;99.90;;;;;;5055969;28;19935;-79
2022/06/07 10:55:28;;;;;;;;;;;21.80;99.90;;;;;;5077689;28;19912;-79
2022/06/07 10:58:12;;;;;;;;;;;23.30;99.90;;;;;;5075839;28;20156;-79
2022/06/07 11:00:51;;;;;;;;;;;25.00;98.00;;;;;;5071533;28;20042;-80
2022/06/07 11:03:21;;;;;;;;;;;25.30;94.40;;;;;;5052156;28;20011;-80
2022/06/07 11:11:25;;;;;;;;;;;27.30;90.60;;;;;;5076741;28;20410;-79
2022/06/07 11:14:02;;;;;;;;;;;25.50;91.90;;;;;;5054957;28;19913;-80
2022/06/07 11:16:47;;;;;;;;;;;24.20;94.10;;;;;;5073251;28;20395;-80
2022/06/07 11:19:13;;;;;;;;;;;25.00;95.00;;;;;;5070942;28;19915;-79
2022/06/07 11:21:44;;;;;;;;;;;25.60;91.50;;;;;;5076205;28;19909;-81
2022/06/07 11:24:24;;;;;;;;;;;24.90;91.50;;;;;;5058064;28;20289;-78
2022/06/07 11:26:50;;;;;;;;;;;24.80;92.00;;;;;;5076077;28;20015;-81
2022/06/07 11:29:21;;;;;;;;;;;24.60;91.90;;;;;;5075925;28;19944;-79
2022/06/07 11:31:47;;;;;;;;;;;25.90;90.80;;;;;;5076275;28;20410;-81
2022/06/07 11:34:13;;;;;;;;;;;26.90;90.40;;;;;;5076308;28;19995;-79
2022/06/07 11:36:41;;;;;;;;;;;27.30;88.40;;;;;;5075953;28;20498;-79
2022/06/07 11:39:24;;;;;;;;;;;27.00;87.00;;;;;;5076562;28;20372;-80
2022/06/07 11:41:54;;;;;;;;;;;27.30;85.00;;;;;;5076086;28;19913;-81
2022/06/07 11:44:19;;;;;;;;;;;26.40;84.90;;;;;;5076693;28;19908;-79
2022/06/07 11:46:51;;;;;;;;;;;27.20;86.60;;;;;;5076088;28;20295;-80
2022/06/07 11:49:23;;;;;;;;;;;28.70;80.80;;;;;;5076404;28;19908;-81
2022/06/07 11:51:57;;;;;;;;;;;28.20;76.40;;;;;;5076041;28;19908;-80
2022/06/07 11:54:41;;;;;;;;;;;26.80;77.80;;;;;;5075997;28;19908;-78
2022/06/07 11:57:19;;;;;;;;;;;26.70;79.20;;;;;;5074656;28;19909;-80
2022/06/07 11:59:53;;;;;;;;;;;26.40;80.00;;;;;;5076171;28;20422;-78
2022/06/07 12:02:25;;;;;;;;;;;26.30;79.80;;;;;;5076086;28;19952;-80
2022/06/07 12:05:00;;;;;;;;;;;26.30;80.70;;;;;;5076107;28;19908;-80
2022/06/07 12:07:29;;;;;;;;;;;27.00;78.30;;;;;;5076302;28;19918;-82
2022/06/07 12:09:59;;;;;;;;;;;27.60;76.90;;;;;;5075753;28;19915;-79
2022/06/07 12:12:34;;;;;;;;;;;26.60;77.50;;;;;;5075608;28;19918;-79
2022/06/07 12:15:09;;;;;;;;;;;25.30;82.50;;;;;;5075882;28;19908;-80
2022/06/07 12:17:34;;;;;;;;;;;25.00;82.60;;;;;;5075824;28;19912;-79
2022/06/07 12:20:00;;;;;;;;;;;26.60;80.60;;;;;;5075311;28;19912;-79
2022/06/07 12:22:30;;;;;;;;;;;28.20;76.80;;;;;;5075642;28;19915;-81
2022/06/07 12:25:01;;;;;;;;;;;28.80;72.80;;;;;;5074062;28;19912;-79
2022/06/07 12:27:28;;;;;;;;;;;28.30;74.40;;;;;;5075361;28;19931;-79
2022/06/07 12:29:57;;;;;;;;;;;28.50;70.90;;;;;;5075318;28;20327;-80
2022/06/07 12:32:33;;;;;;;;;;;27.50;71.50;;;;;;5075196;28;19915;-80
2022/06/07 12:35:19;;;;;;;;;;;26.90;74.20;;;;;;5075305;28;19954;-81
2022/06/07 12:37:47;;;;;;;;;;;27.70;74.30;;;;;;5075075;28;19924;-80
2022/06/07 12:40:21;;;;;;;;;;;28.30;74.40;;;;;;5075452;28;19912;-79
2022/06/07 12:42:47;;;;;;;;;;;29.00;73.50;;;;;;5075217;28;19912;-79
2022/06/07 12:45:37;;;;;;;;;;;29.30;69.40;;;;;;5075200;28;20423;-78
2022/06/07 12:48:08;;;;;;;;;;;28.20;70.80;;;;;;5074303;28;19908;-80
2022/06/07 12:50:38;;;;;;;;;;;27.50;73.60;;;;;;5075226;28;19924;-80
2022/06/07 12:53:04;;;;;;;;;;;27.70;71.70;;;;;;5075138;28;20272;-78
2022/06/07 12:55:31;;;;;;;;;;;27.60;72.00;;;;;;5074709;28;19970;-79
2022/06/07 12:58:00;;;;;;;;;;;26.80;72.60;;;;;;5075020;28;20419;-79
2022/06/07 13:00:32;;;;;;;;;;;26.90;72.40;;;;;;5074622;28;19913;-80
2022/06/07 13:03:00;;;;;;;;;;;26.80;71.20;;;;;;5074666;28;19909;-78
2022/06/07 13:05:31;;;;;;;;;;;26.40;72.00;;;;;;5074637;28;20018;-81
2022/06/07 13:08:00;;;;;;;;;;;25.90;74.00;;;;;;5074841;28;19990;-80
2022/06/07 13:10:27;;;;;;;;;;;25.70;74.50;;;;;;5074485;28;20346;-79
2022/06/07 13:12:55;;;;;;;;;;;26.40;73.10;;;;;;5074366;28;19958;-80
2022/06/07 13:15:25;;;;;;;;;;;26.20;73.40;;;;;;5074631;28;20435;-78
2022/06/07 13:17:55;;;;;;;;;;;25.30;75.00;;;;;;5074339;28;20412;-79
2022/06/07 13:20:31;;;;;;;;;;;24.20;77.60;;;;;;5072956;28;19912;-78
2022/06/07 13:22:57;;;;;;;;;;;23.70;80.50;;;;;;5074304;28;19916;-81
2022/06/07 13:25:27;;;;;;;;;;;23.80;81.70;;;;;;5074300;28;20110;-80
2022/06/07 13:28:03;;;;;;;;;;;24.40;79.00;;;;;;5074119;28;19943;-78
2022/06/07 13:30:31;;;;;;;;;;;26.70;75.00;;;;;;5074626;28;19912;-79
2022/06/07 13:33:07;;;;;;;;;;;28.10;71.90;;;;;;5072795;28;19918;-81
2022/06/07 13:35:55;;;;;;;;;;;27.80;69.30;;;;;;5074079;28;20407;-81
2022/06/07 13:38:30;;;;;;;;;;;26.40;72.70;;;;;;5073623;28;20305;-79
2022/06/07 13:41:05;;;;;;;;;;;24.50;74.90;;;;;;5073892;28;20437;-78
2022/06/07 13:43:37;;;;;;;;;;;23.70;78.00;;;;;;5074210;28;20002;-81
2022/06/07 13:46:06;;;;;;;;;;;23.70;78.70;;;;;;5074251;28;20287;-78
2022/06/07 13:54:18;;;;;;;;;;;27.70;74.50;;;;;;5073867;28;19916;-79
2022/06/07 13:56:44;;;;;;;;;;;29.30;69.90;;;;;;5073755;28;20386;-78
2022/06/07 13:59:11;;;;;;;;;;;29.20;65.80;;;;;;5073028;28;19909;-79
2022/06/07 14:01:40;;;;;;;;;;;27.60;67.80;;;;;;5073700;28;20292;-78
2022/06/07 14:04:11;;;;;;;;;;;27.00;69.20;;;;;;5073762;28;19913;-78
2022/06/07 14:06:38;;;;;;;;;;;28.40;68.20;;;;;;5073767;28;19909;-80
2022/06/07 14:09:11;;;;;;;;;;;28.80;65.60;;;;;;5073703;28;19908;-78
2022/06/07 14:11:37;;;;;;;;;;;27.40;66.90;;;;;;5074182;28;19908;-78
2022/06/07 14:14:02;;;;;;;;;;;26.90;68.80;;;;;;5073548;28;19999;-79
2022/06/07 14:16:32;;;;;;;;;;;28.20;68.30;;;;;;5073579;28;19908;-80
2022/06/07 14:19:00;;;;;;;;;;;29.50;66.60;;;;;;5073651;28;20369;-78
2022/06/07 14:21:25;;;;;;;;;;;29.20;63.60;;;;;;5073487;28;19923;-79
2022/06/07 14:23:51;;;;;;;;;;;27.90;64.80;;;;;;5073536;28;20378;-78
2022/06/07 14:26:17;;;;;;;;;;;27.30;66.10;;;;;;5073513;28;19908;-79
2022/06/07 14:28:42;;;;;;;;;;;26.30;67.80;;;;;;5073660;28;19923;-79
2022/06/07 14:31:20;;;;;;;;;;;25.80;69.30;;;;;;5073772;28;19915;-77
2022/06/07 14:33:45;;;;;;;;;;;26.60;69.10;;;;;;5073614;28;20015;-79
2022/06/07 14:36:12;;;;;;;;;;;26.00;70.00;;;;;;5073156;28;19955;-79
2022/06/07 14:38:38;;;;;;;;;;;25.80;69.40;;;;;;5073704;28;19913;-78
2022/06/07 14:41:04;;;;;;;;;;;26.10;69.50;;;;;;5073304;28;19958;-77
2022/06/07 14:43:31;;;;;;;;;;;26.40;68.80;;;;;;5073605;28;19948;-78
2022/06/07 14:46:02;;;;;;;;;;;26.40;68.70;;;;;;5073624;28;20276;-80
2022/06/07 14:48:30;;;;;;;;;;;29.40;67.10;;;;;;5073269;28;19983;-79
2022/06/07 14:50:56;;;;;;;;;;;31.70;63.10;;;;;;5073571;28;19913;-79
2022/06/07 14:53:22;;;;;;;;;;;28.60;62.40;;;;;;5073531;28;19931;-79